Flight Track Log - Related Links

Times and Time Zones

All times are in EDT time to prevent confusion due to time zone crossing. See the EGF3609 flight status page for this flight to view local times or setup timezone preferences in your user account.

Time Position Orientation Groundspeed Altitude Reporting Facility
EDT Latitude Longitude Course Direction KTS MPH feet Rate Location/Type
Mon 06:10:37 AM 40.4875 -80.1844 286° West 162 186 2,300  Level Cleveland Center
Mon 06:11:39 AM 40.5103 -80.1297 61° Northeast 184 212 4,500 2,400 Climbing Cleveland Center
Mon 06:12:00 AM 40.5652 -80.6424 285° West  Level FlightAware Approximate
Mon 06:12:37 AM 40.5481 -80.1897 310° West 107 123 7,100  Level Cleveland Center
Mon 06:13:00 AM 40.5974 -80.7826 291° West  Level FlightAware Approximate
Mon 06:13:38 AM 40.5672 -80.2961 283° West 167 192 9,700  Level Cleveland Center
Mon 06:14:00 AM 40.6311 -80.9222 285° West  Level FlightAware Approximate
Mon 06:14:38 AM 40.5839 -80.4053 281° West 241 277 11,900  Level Cleveland Center
Mon 06:15:00 AM 40.6606 -81.0635 282° West  Level FlightAware Approximate
Mon 06:15:36 AM 40.6028 -80.5311 281° West 308 354 14,400  Level Cleveland Center
Mon 06:16:00 AM 40.6890 -81.2055 286° West  Level FlightAware Approximate
Mon 06:16:39 AM 40.6194 -80.6625 280° West 359 413 15,900  Level Cleveland Center
Mon 06:17:36 AM 40.6422 -80.7800 284° West 370 426 17,800 1,780 Climbing Cleveland Center
Mon 06:18:37 AM 40.6628 -80.9197 281° West 383 441 19,400 1,835 Climbing Cleveland Center
Mon 06:19:37 AM 40.6831 -81.0650 280° West 396 456 21,500 1,785 Climbing Cleveland Center
Mon 06:20:38 AM 40.7053 -81.2103 281° West 407 468 23,000 1,450 Climbing Cleveland Center
Mon 06:21:37 AM 40.7275 -81.3586 281° West 412 474 24,400 1,361 Climbing Cleveland Center
Mon 06:22:37 AM 40.7575 -81.5261 283° West 419 482 25,700 1,140 Climbing Cleveland Center
Mon 06:23:38 AM 40.7872 -81.6828 284° West 434 499 26,700 1,109 Climbing Cleveland Center
Mon 06:24:36 AM 40.8189 -81.8453 284° West 445 512 27,900 1,068 Climbing Cleveland Center
Mon 06:25:36 AM 40.8461 -82.0103 282° West 451 519 28,800 900 Climbing Cleveland Center
Mon 06:26:36 AM 40.8753 -82.1786 283° West 463 533 29,700 850 Climbing Cleveland Center
Mon 06:27:36 AM 40.9061 -82.3469 284° West 473 544 30,500 650 Climbing Cleveland Center
Mon 06:28:36 AM 40.9328 -82.5017 283° West 478 550 31,000 645 Climbing Cleveland Center
Mon 06:29:37 AM 40.9650 -82.6811 283° West 491 565 31,800 496 Climbing Cleveland Center
Mon 06:30:37 AM 40.9972 -82.8583 284° West 491 565 32,000 98 Climbing Cleveland Center
Mon 06:31:39 AM 41.0267 -83.0356 282° West 496 571 32,000  Level Cleveland Center
Mon 06:32:37 AM 41.0619 -83.2297 284° West 496 571 32,000  Level Cleveland Center
Mon 06:33:37 AM 41.0933 -83.4072 283° West 496 571 32,000  Level Cleveland Center
Mon 06:34:38 AM 41.1161 -83.5736 280° West 491 565 32,000  Level Cleveland Center
Mon 06:35:37 AM 41.1444 -83.7569 282° West 496 571 32,000  Level Cleveland Center
Mon 06:36:37 AM 41.1806 -83.9519 284° West 496 571 32,000  Level Cleveland Center
Mon 06:37:38 AM 41.2083 -84.1356 281° West 501 577 32,000  Level Cleveland Center
Mon 06:37:59 AM 41.2167 -84.1739 286° West 506 582 32,000  Level Chicago Center
Mon 06:39:00 AM 41.2278 -84.3583 275° West 501 577 32,000  Level Chicago Center
Mon 06:40:00 AM 41.2328 -84.5808 272° West 504 580 32,000  Level Chicago Center
Mon 06:41:01 AM 41.2389 -84.7669 273° West 504 580 32,000  Level Chicago Center
Mon 06:42:01 AM 41.2450 -84.9528 273° West 504 580 32,000 -298 Level Chicago Center
Mon 06:43:02 AM 41.2517 -85.1386 273° West 502 578 31,400 -595 Descending Chicago Center
Mon 06:44:02 AM 41.2772 -85.3158 281° West 493 567 30,800 -595 Descending Chicago Center
Mon 06:45:03 AM 41.3025 -85.4911 281° West 482 555 30,200 -1,091 Descending Chicago Center
Mon 06:46:03 AM 41.3256 -85.6661 280° West 477 549 28,600 -1,636 Descending Chicago Center
Mon 06:47:04 AM 41.3478 -85.8386 280° West 470 541 26,900 -1,672 Descending Chicago Center
Mon 06:48:05 AM 41.3706 -86.0031 281° West 448 516 25,200 -1,438 Descending Chicago Center
Mon 06:49:05 AM 41.3894 -86.1572 279° West 426 490 24,000 -843 Descending Chicago Center
Mon 06:50:06 AM 41.4097 -86.3111 280° West 423 487 23,500 -744 Descending Chicago Center
Mon 06:51:06 AM 41.4033 -86.4631 267° West 408 470 22,500 -992 Descending Chicago Center
Mon 06:52:07 AM 41.3953 -86.6186 266° West 420 483 21,500 -942 Descending Chicago Center
Mon 06:53:07 AM 41.3867 -86.7539 265° West 411 473 20,600 -942 Descending Chicago Center
Mon 06:54:08 AM 41.3803 -86.9003 267° West 398 458 19,600 -984 Descending Chicago Center
Mon 06:55:09 AM 41.3781 -87.0422 269° West 388 447 18,600 -1,458 Descending Chicago Center
Mon 06:55:55 AM 41.4500 -87.1500 312° West 379 436 17,000 -2,579 Descending Chicago TRACON
Mon 06:56:56 AM 41.5167 -87.2500 312° West 378 435 14,000 -2,826 Descending Chicago TRACON
Mon 06:57:56 AM 41.5833 -87.3500 312° West 367 422 11,300 -1,500 Descending Chicago TRACON
Mon 06:58:56 AM 41.6500 -87.4500 312° West 366 421 11,000 -240 Descending Chicago TRACON
Mon 06:59:11 AM 41.6719 -87.4653 333° Northwest 367 422 11,000  Level Chicago Center
Mon 07:00:12 AM 41.7394 -87.5611 313° West 361 415 11,000 -446 Level Chicago Center
Mon 07:01:12 AM 41.7978 -87.6419 314° West 310 357 10,100 -1,140 Descending Chicago Center
Mon 07:02:13 AM 41.8278 -87.7369 293° West 296 341 8,700 -1,488 Descending Chicago Center
Mon 07:03:13 AM 41.8194 -87.8386 264° West 278 320 7,100 -1,686 Descending Chicago Center
Mon 07:04:14 AM 41.7986 -87.9375 254° West 282 325 5,300 -1,377 Descending Chicago Center
Mon 07:05:15 AM 41.8078 -88.0253 278° West 258 297 4,300 -1,041 Descending Chicago Center
Mon 07:06:15 AM 41.8608 -88.0108 11° North 226 260 3,200 -1,188 Descending Chicago Center
Mon 07:06:56 AM 41.9000 -87.9667 40° Northeast 168 193 2,300 -950 Descending Chicago TRACON
Mon 07:07:56 AM 41.9167 -87.9333 56° Northeast 129 148 1,600 -700 Descending Chicago TRACON
Mon 07:08:56 AM 41.9500 -87.9000 37° Northeast 130 150 900 -700 Descending Chicago TRACON

Login

Don't have an account? Register now (free) for customized features, flight alerts, and more!